Southwestern Research Station, Arizona Weather observations

Data are for 10 minute period ending at time listed.
 Day   Time   Solar   Ave.   Ave.  Ave.  Vector  Max.   Baro.   Total    
  of    of     Rad.   Air    Rel.  Wind   Wind   Wind  Press.  Precip.   
Year   Day            Temp.  Hum.  Speed  Dir.   Gust                    
2026   (PST)  Kw/m2    F      %     mph   deg.    mph    mb.     in.     
-------------------------------------------------------------------------
 123    5:20   0.00   43.9    96    0.1   221     1.7   835.3    0.00 
 123    5:30   0.00   43.8    96    0.1   295     0.6   835.3    0.00 
 123    5:40   0.01   44.1    96    0.0   247     0.1   835.3    0.00 
 123    5:50   0.02   44.1    96    0.0   240     0.7   835.4    0.00 
 123    6:00   0.03   44.5    96    0.1   262     1.0   835.5    0.00 
 123    6:10   0.03   44.7    96    0.0   267     0.7   835.4    0.00 
 123    6:20   0.05   45.2    96    0.1   267     1.5   835.4    0.00 
 123    6:30   0.06   46.0    96    0.1   267     0.8   835.5    0.00 
 123    6:40   0.09   46.9    96    0.0   210     0.4   835.5    0.00 
 123    6:50   0.09   47.9    95    0.2   319     1.4   835.5    0.00 
 123    7:00   0.08   49.2    93    0.3   228     1.3   835.5    0.00 
 123    7:10   0.12   50.1    91    0.0   151     0.6   835.5    0.00 
 123    7:20   0.20   51.3    84    0.2   191     1.0   835.7    0.00 
 123    7:30   0.20   53.4    76    1.1   114     3.5   835.7    0.00 
 123    7:40   0.20   54.6    71    0.3   119     2.6   835.8    0.00 
 123    7:50   0.21   55.2    67    0.8   118     3.4   835.7    0.00 
 123    8:00   0.47   56.5    64    1.0   120     3.9   835.7    0.00 
 123    8:10   0.31   58.6    60    1.2   117     4.2   835.7    0.00 
 123    8:20   0.35   58.4    60    1.4   128     4.5   835.8    0.00 
 123    8:30   0.28   59.1    59    1.9   122     5.6   836.0    0.00 
 123    8:40   0.33   59.2    59    2.5   111     6.6   836.1    0.00 
 123    8:50   0.34   59.3    59    2.2   100     5.9   836.3    0.00 
 123    9:00   0.47   60.4    58    2.7   114     6.4   836.5    0.00 
 123    9:10   0.48   61.2    56    3.6   108     9.9   836.4    0.00 
 123    9:20   0.45   61.3    56    2.8   118     8.8   836.2    0.00 
 123    9:30   0.53   61.7    56    2.7   116     9.2   836.2    0.00 
 123    9:40   0.58   63.2    53    4.2   112    10.4   836.3    0.00 
 123    9:50   0.62   64.1    51    4.0   102    11.4   836.3    0.00 
 123   10:00   0.52   65.1    50    3.0    98     9.2   836.2    0.00 
 123   10:10   0.53   65.2    49    4.2    91    12.9   836.2    0.00 
 123   10:20   0.51   65.2    48    4.5    93    10.2   836.2    0.00 
 123   10:30   0.59   65.5    48    3.9    93    10.2   836.2    0.00 
 123   10:40   0.61   66.6    46    3.5    92    10.7   836.2    0.00 
 123   10:50   0.60   67.1    46    3.3   103    10.1   836.3    0.00 
 123   11:00   0.60   67.3    45    3.5   110     8.1   836.4    0.00 
 123   11:10   0.63   68.5    44    3.6   108     9.3   836.2    0.00 
 123   11:20   0.60   68.5    43    3.8   106     9.1   836.2    0.00 
 123   11:30   0.70   68.7    43    3.3   110     7.7   836.0    0.00 
 123   11:40   0.77   70.1    41    2.9   111     7.3   835.8    0.00 
 123   11:50   0.75   70.9    40    2.5   105     8.7   835.6    0.00 
 123   12:00   0.48   70.7    41    2.0   112     5.9   835.6    0.00 
 123   12:10   0.48   70.8    39    2.1   105     7.5   835.4    0.00 
 123   12:20   0.46   71.1    39    1.5   155     4.5   835.3    0.00 
 123   12:30   0.53   71.0    37    1.3   130     4.6   835.2    0.00 
 123   12:40   0.52   71.5    38    3.1   124     6.9   835.0    0.00 
 123   12:50   0.47   72.1    37    2.6   100     7.2   834.8    0.00 
 123   13:00   0.58   71.8    36    2.6   136     6.6   834.6    0.00 
 123   13:10   0.63   73.2    34    2.4   136     6.2   834.3    0.00 
 123   13:20   0.78   74.0    32    3.1   145    10.0   834.2    0.00 
 123   13:30   0.52   73.7    31    3.5   175     9.2   834.2    0.00 
 123   13:40   0.65   74.6    30    2.3   190     8.0   834.2    0.00 
 123   13:50   0.49   74.5    30    1.8   136     5.8   834.2    0.00 
 123   14:00   0.59   74.9    30    2.4   140     8.3   833.9    0.00 
 123   14:10   0.63   75.9    29    2.3   141     8.5   833.8    0.00 
 123   14:20   0.52   74.8    29    4.4   154    16.4   833.8    0.00 
 123   14:30   0.26   73.5    30    3.7   131    11.3   833.7    0.00 
 123   14:40   0.29   73.1    31    2.8   131     8.1   833.4    0.00 
 123   14:50   0.52   74.0    29    3.1   145     9.4   833.3    0.00 
 123   15:00   0.42   74.5    29    3.3   151    10.6   833.1    0.00 
 123   15:10   0.53   74.3    29    3.4   144    12.6   832.9    0.00 
 123   15:20   0.50   75.2    28    2.4   190     9.8   832.9    0.00 
 123   15:30   0.45   75.0    28    1.8   175     6.4   832.9    0.00 
 123   15:40   0.39   75.3    27    2.1   247     6.6   832.7    0.00 
 123   15:50   0.28   74.6    28    2.2   185     8.0   832.6    0.00 
 123   16:00   0.31   74.4    30    1.3   154     4.9   832.6    0.00 
 123   16:10   0.29   74.3    28    3.4   268    10.7   832.7    0.00 
 123   16:20   0.23   73.5    28    2.9   224     8.6   832.7    0.00 
 123   16:30   0.17   72.7    28    3.6   196    10.7   832.8    0.00 
 123   16:40   0.11   72.2    30    3.2   181     9.7   832.9    0.00 
 123   16:50   0.12   71.8    31    1.8   239     6.9   832.8    0.00 
 123   17:00   0.13   71.9    31    1.2   133     3.9   832.6    0.00 
 123   17:10   0.10   71.9    32    0.8    78     3.4   832.5    0.00 
 123   17:20   0.09   71.7    33    1.7    94     5.0   832.5    0.00 
 123   17:30   0.08   71.4    34    1.9   142     5.5   832.4    0.00 
 123   17:40   0.08   71.1    35    1.1   148     5.4   832.5    0.00 
 123   17:50   0.09   70.6    36    1.2   234     6.2   832.5    0.00 
 123   18:00   0.08   71.1    33    1.3   196     7.2   832.4    0.00 
 123   18:10   0.06   70.7    34    0.9   193     9.6   832.5    0.00 
 123   18:20   0.04   70.2    30    1.6   222     4.9   832.5    0.00 
 123   18:30   0.04   69.9    31    1.3   248     5.6   832.5    0.00 
 123   18:40   0.04   68.5    34    0.1    60     1.3   832.4    0.00 
 123   18:50   0.02   67.0    38    0.3   238     2.9   832.5    0.00 
 123   19:00   0.01   65.2    43    0.8   312     4.1   832.4    0.00 
 123   19:10   0.00   63.6    44    0.1   130     2.0   832.4    0.00 
 123   19:20   0.00   62.3    47    0.5   243     2.3   832.5    0.00 
 123   19:30   0.00   60.7    50    0.3   247     2.1   832.6    0.00 
 123   19:40   0.00   59.7    53    0.2   251     1.8   832.5    0.00 
 123   19:50   0.00   58.8    55    1.1   287     3.1   832.7    0.00 
 123   20:00   0.00   58.6    56    0.1   263     1.2   832.7    0.00 
 123   20:10   0.00   57.6    58    0.5   282     2.4   832.7    0.00 
 123   20:20   0.00   57.0    58    0.5   292     3.1   832.7    0.00 
 123   20:30   0.00   56.3    61    0.7   263     2.6   832.9    0.00 
 123   20:40   0.00   55.7    62    1.2   312     3.0   832.9    0.00 
 123   20:50   0.00   55.5    62    1.3   245     4.8   832.8    0.00 
 123   21:00   0.00   55.8    61    0.9   330     3.9   833.1    0.00 
 123   21:10   0.00   55.7    62    0.4   295     1.8   833.2    0.00 
 123   21:20   0.00   55.4    62    0.5   304     2.3   833.2    0.00 
 123   21:30   0.00   54.9    62    0.7   353     2.8   833.0    0.00 
 123   21:40   0.00   54.8    61    0.5   268     2.3   833.0    0.00 
 123   21:50   0.00   54.5    62    0.8   273     2.8   833.1    0.00 
 123   22:00   0.00   54.0    63    0.9   262     4.5   833.2    0.00 
 123   22:10   0.00   54.5    59    1.0   317     2.7   833.0    0.00 
 123   22:20   0.00   55.7    54    1.1   230     8.8   833.0    0.00 
 123   22:30   0.00   55.9    54    0.6    96     5.6   833.1    0.00 
 123   22:40   0.00   55.0    56    1.3   267     4.5   833.0    0.00 
 123   22:50   0.00   55.4    52    1.3   312     4.2   833.1    0.00 
 123   23:00   0.00   58.6    45    1.6   233     9.3   833.0    0.00 
 123   23:10   0.00   56.6    51    1.7   196     6.8   833.2    0.00 
 123   23:20   0.00   56.6    50    0.9   136     3.1   833.2    0.00 
 123   23:30   0.00   56.4    50    1.3   280     5.3   833.2    0.00 
 123   23:40   0.00   56.5    48    0.7   146     3.3   833.1    0.00 
 123   23:50   0.00   55.8    49    1.0     8     3.7   833.1    0.00 
 124    0:00   0.00   54.8    50    0.6   314     2.6   833.1    0.00 
 124    0:10   0.00   54.0    54    0.3   313     1.8   833.1    0.00 
 124    0:20   0.00   52.8    56    1.3   319     4.0   832.9    0.00 
 124    0:30   0.00   51.8    59    0.8    14     2.7   832.8    0.00 
 124    0:40   0.00   51.3    61    0.2    25     1.7   832.7    0.00 
 124    0:50   0.00   50.7    62    1.4   264     4.7   832.6    0.00 
 124    1:00   0.00   51.5    58    1.1    20     3.1   832.5    0.00 
 124    1:10   0.00   53.1    53    1.9    73     5.1   832.3    0.00 
 124    1:20   0.00   55.3    47    3.0   208     8.6   832.3    0.00 
 124    1:30   0.00   58.7    39    3.2    71     9.2   832.3    0.00 
 124    1:40   0.00   60.2    38    2.7   105     8.8   832.3    0.00 
 124    1:50   0.00   61.2    37    2.1   203     7.2   832.3    0.00 
 124    2:00   0.00   62.8    35    3.7   205    14.0   832.1    0.00 
 124    2:10   0.00   62.8    34    4.3   205    20.9   832.1    0.00 
 124    2:20   0.00   63.2    33    3.0   205    14.2   832.0    0.00 
 124    2:30   0.00   63.2    32    3.8   203    15.0   831.9    0.00 
 124    2:40   0.00   63.2    31    3.0   247    10.5   831.7    0.00 
 124    2:50   0.00   62.9    32    2.8   246    10.6   831.7    0.00 
 124    3:00   0.00   62.6    33    3.2   238    12.7   831.8    0.00 
 124    3:10   0.00   61.9    34    2.6   186     8.8   831.9    0.00 
 124    3:20   0.00   61.7    35    2.9   214    11.3   832.0    0.00 
 124    3:30   0.00   61.9    33    3.3   178    12.1   832.0    0.00 
 124    3:40   0.00   62.3    32    3.0    82     9.8   832.1    0.00 
 124    3:50   0.00   61.7    33    2.5   183    10.4   832.2    0.00 
 124    4:00   0.00   61.4    34    2.3   148     9.3   832.2    0.00 
 124    4:10   0.00   61.4    31    3.6   195     9.8   832.3    0.00 
 124    4:20   0.00   61.4    32    1.8    69     4.7   832.2    0.00 
 124    4:30   0.00   59.7    36    2.2    74     7.9   832.3    0.00 
 124    4:40   0.00   59.3    38    2.7   100    11.8   832.1    0.00 
 124    4:50   0.00   59.6    38    1.9   140     5.8   832.1    0.00 
 124    5:00   0.00   58.5    40    1.7    47     6.8   832.2    0.00 
 124    5:10   0.00   58.4    39    3.0    59    11.4   832.2    0.00 

Return to Southwestern Research Station graphs page.


Western Regional Climate Center,wrcc@dri.edu